Time;durP1;ratioP1;P1;durP2;ratioP2;P2;SDS_P1;SDS_P2;PMS_P1;PMS_P2;Temp;Humidity;BMP_temperature;BMP_pressure;BME280_temperature;BME280_humidity;BME280_pressure;Samples;Min_cycle;Max_cycle;Signal;HPM_P1;HPM_P2
2022/06/08 00:00:14;;;;;;;18.30;8.90;;;15.70;99.90;;;;;;5051082;28;20539;-75
2022/06/08 00:02:42;;;;;;;20.30;10.77;;;15.80;99.90;;;;;;5061044;28;20425;-74
2022/06/08 00:05:08;;;;;;;19.80;10.03;;;15.70;99.90;;;;;;5049511;28;20490;-75
2022/06/08 00:07:34;;;;;;;22.47;11.10;;;15.70;99.90;;;;;;5051792;28;20498;-75
2022/06/08 00:09:59;;;;;;;23.70;11.83;;;15.70;99.90;;;;;;5055921;28;20456;-75
2022/06/08 00:12:26;;;;;;;21.13;10.60;;;15.70;99.90;;;;;;5055045;28;20194;-75
2022/06/08 00:14:51;;;;;;;18.23;9.27;;;15.80;99.90;;;;;;5066542;28;20360;-74
2022/06/08 00:17:18;;;;;;;21.40;9.83;;;15.70;99.90;;;;;;5059279;28;20555;-74
2022/06/08 00:19:44;;;;;;;19.00;9.80;;;15.70;99.90;;;;;;5059393;28;20292;-73
2022/06/08 00:22:10;;;;;;;16.27;9.17;;;15.60;99.90;;;;;;5077006;28;20476;-74
2022/06/08 00:24:35;;;;;;;23.57;11.33;;;15.60;99.90;;;;;;5054835;28;20459;-74
2022/06/08 00:27:01;;;;;;;19.03;9.63;;;15.60;99.90;;;;;;5065755;28;20896;-74
2022/06/08 00:29:27;;;;;;;17.67;9.43;;;15.60;99.90;;;;;;5045364;28;20236;-73
2022/06/08 00:31:53;;;;;;;14.93;8.33;;;15.60;99.90;;;;;;5057325;28;20530;-73
2022/06/08 00:34:18;;;;;;;23.00;10.13;;;15.60;99.90;;;;;;5047485;28;20239;-76
2022/06/08 00:36:44;;;;;;;16.07;8.87;;;15.50;99.90;;;;;;5061355;28;20263;-73
2022/06/08 00:39:09;;;;;;;17.30;9.50;;;15.60;99.90;;;;;;5052370;28;20233;-76
2022/06/08 00:41:38;;;;;;;15.70;8.47;;;15.60;99.90;;;;;;5058674;28;20183;-76
2022/06/08 00:44:09;;;;;;;15.90;8.67;;;15.60;99.90;;;;;;5060859;28;20247;-74
2022/06/08 00:46:34;;;;;;;22.00;9.37;;;15.60;99.90;;;;;;5045457;28;20944;-77
2022/06/08 00:49:08;;;;;;;17.13;8.43;;;15.50;99.90;;;;;;5057641;28;20507;-75
2022/06/08 00:51:34;;;;;;;14.23;7.60;;;15.60;99.90;;;;;;5044857;28;20202;-74
2022/06/08 00:54:03;;;;;;;16.10;8.87;;;15.60;99.90;;;;;;5050233;28;20433;-75
2022/06/08 00:56:38;;;;;;;15.47;8.10;;;15.60;99.90;;;;;;5040549;28;20225;-76
2022/06/08 00:59:08;;;;;;;13.63;6.90;;;15.50;99.90;;;;;;5048920;28;20464;-75
2022/06/08 01:01:33;;;;;;;18.30;8.67;;;15.50;99.90;;;;;;5056019;28;21024;-74
2022/06/08 01:04:11;;;;;;;16.17;8.73;;;15.50;99.90;;;;;;5049358;28;20507;-73
2022/06/08 01:06:37;;;;;;;15.97;7.63;;;15.50;99.90;;;;;;5056661;28;20296;-74
2022/06/08 01:09:03;;;;;;;15.63;7.17;;;15.40;99.90;;;;;;5049846;28;20453;-74
2022/06/08 01:11:36;;;;;;;20.47;8.40;;;15.50;99.90;;;;;;5048506;28;20498;-73
2022/06/08 01:14:05;;;;;;;15.60;7.13;;;15.50;99.90;;;;;;5056264;28;20202;-75
2022/06/08 01:16:32;;;;;;;15.00;6.90;;;15.50;99.90;;;;;;5076199;28;20477;-75
2022/06/08 01:19:00;;;;;;;18.03;7.83;;;15.60;99.90;;;;;;5043789;28;20555;-75
2022/06/08 01:21:25;;;;;;;21.30;9.50;;;15.60;99.90;;;;;;5057795;28;20436;-75
2022/06/08 01:23:56;;;;;;;20.70;9.10;;;15.60;99.90;;;;;;5038502;28;20433;-75
2022/06/08 01:26:39;;;;;;;22.53;9.33;;;15.60;99.90;;;;;;5068481;28;20245;-74
2022/06/08 01:29:25;;;;;;;16.60;7.30;;;15.70;99.90;;;;;;5050729;28;20548;-75
2022/06/08 01:32:07;;;;;;;13.80;7.10;;;15.70;99.90;;;;;;5060465;28;20515;-74
2022/06/08 01:34:43;;;;;;;23.00;9.20;;;15.70;99.90;;;;;;5054733;28;20436;-74
2022/06/08 01:37:38;;;;;;;13.60;6.70;;;15.70;99.90;;;;;;5052943;28;20470;-74
2022/06/08 01:40:28;;;;;;;15.63;7.40;;;15.70;99.90;;;;;;5053667;28;20444;-73
2022/06/08 01:43:12;;;;;;;17.23;8.80;;;15.70;99.90;;;;;;5053349;28;20422;-74
2022/06/08 01:46:02;;;;;;;21.37;8.80;;;15.60;99.90;;;;;;5057040;28;20493;-75
2022/06/08 01:48:49;;;;;;;26.03;10.70;;;15.70;99.90;;;;;;5054297;28;20432;-74
2022/06/08 01:51:38;;;;;;;18.20;8.47;;;15.60;99.90;;;;;;5048793;28;20861;-74
2022/06/08 01:54:18;;;;;;;12.67;6.73;;;15.60;99.90;;;;;;5055938;28;20535;-74
2022/06/08 01:56:47;;;;;;;17.97;8.17;;;15.60;99.90;;;;;;5059786;28;20463;-75
2022/06/08 01:59:24;;;;;;;17.77;7.47;;;15.70;99.90;;;;;;5056325;28;20444;-73
2022/06/08 02:02:06;;;;;;;20.03;8.90;;;15.60;99.90;;;;;;5055387;28;20872;-74
2022/06/08 02:04:49;;;;;;;16.97;8.03;;;15.70;99.90;;;;;;5051146;28;20433;-75
2022/06/08 02:07:44;;;;;;;18.93;9.33;;;15.60;99.90;;;;;;5050064;28;20469;-75
2022/06/08 02:10:19;;;;;;;28.20;12.00;;;15.60;99.90;;;;;;5051672;28;20456;-74
2022/06/08 02:12:51;;;;;;;22.53;10.67;;;15.60;99.90;;;;;;5062639;28;20426;-74
2022/06/08 02:15:34;;;;;;;14.33;7.83;;;15.50;99.90;;;;;;5059613;28;20519;-74
2022/06/08 02:18:06;;;;;;;18.60;8.60;;;15.50;99.90;;;;;;5045150;28;20558;-75
2022/06/08 02:20:38;;;;;;;19.57;9.17;;;15.50;99.90;;;;;;5046858;28;20582;-76
2022/06/08 02:23:08;;;;;;;13.70;7.23;;;15.50;99.90;;;;;;5044361;28;20426;-75
2022/06/08 02:25:45;;;;;;;13.87;6.93;;;15.40;99.90;;;;;;5049836;28;20790;-75
2022/06/08 02:28:15;;;;;;;26.20;11.20;;;15.50;99.90;;;;;;5059694;28;20467;-74
2022/06/08 02:30:46;;;;;;;13.63;6.50;;;15.40;99.90;;;;;;5058619;28;20536;-74
2022/06/08 02:36:34;;;;;;;17.50;8.40;;;15.30;99.90;;;;;;5052731;28;21017;-74
2022/06/08 02:39:13;;;;;;;18.23;7.90;;;15.30;99.90;;;;;;5047063;28;20540;-74
2022/06/08 02:41:43;;;;;;;22.80;9.83;;;15.30;99.90;;;;;;5056510;28;20513;-75
2022/06/08 02:44:14;;;;;;;13.80;6.73;;;15.30;99.90;;;;;;5060317;28;20982;-76
2022/06/08 02:46:48;;;;;;;15.67;7.13;;;15.70;99.90;;;;;;5050953;28;20811;-74
2022/06/08 02:49:13;;;;;;;23.90;10.47;;;15.40;99.90;;;;;;5048483;28;20586;-73
2022/06/08 02:51:46;;;;;;;24.07;9.10;;;15.30;99.90;;;;;;5055352;28;20443;-74
2022/06/08 02:54:21;;;;;;;18.67;7.87;;;15.40;99.90;;;;;;5049783;28;20191;-74
2022/06/08 02:57:16;;;;;;;19.93;9.70;;;15.40;99.90;;;;;;5059036;28;21046;-76
2022/06/08 02:59:42;;;;;;;19.73;9.47;;;;;;;;;;5065185;28;20526;-75
2022/06/08 03:02:36;;;;;;;20.03;7.90;;;15.40;99.90;;;;;;5056778;28;20465;-75
2022/06/08 03:05:08;;;;;;;19.17;8.90;;;15.30;99.90;;;;;;5058788;28;20198;-75
2022/06/08 03:07:56;;;;;;;14.30;7.40;;;15.40;99.90;;;;;;5052256;28;20814;-74
2022/06/08 03:10:23;;;;;;;18.77;8.67;;;15.40;99.90;;;;;;5054064;28;20452;-73
2022/06/08 03:12:54;;;;;;;18.27;8.17;;;15.30;99.90;;;;;;5055601;28;20801;-74
2022/06/08 03:15:23;;;;;;;14.20;6.70;;;15.30;99.90;;;;;;5056164;28;20429;-75
2022/06/08 03:17:50;;;;;;;16.73;7.87;;;16.20;99.90;;;;;;5049718;28;20555;-76
2022/06/08 03:20:18;;;;;;;23.13;10.00;;;15.30;99.90;;;;;;5049381;28;20814;-76
2022/06/08 03:22:44;;;;;;;24.33;10.20;;;15.30;99.90;;;;;;5074235;28;20440;-77
2022/06/08 03:25:10;;;;;;;18.07;8.00;;;15.40;99.90;;;;;;5064071;28;20426;-76
2022/06/08 03:27:37;;;;;;;17.83;8.07;;;15.30;99.90;;;;;;5061773;28;20191;-76
2022/06/08 03:30:05;;;;;;;18.40;7.33;;;15.30;99.90;;;;;;5050891;28;20452;-76
2022/06/08 03:32:30;;;;;;;18.50;8.00;;;15.40;99.90;;;;;;5050494;28;20425;-74
2022/06/08 03:34:56;;;;;;;12.93;6.30;;;15.40;99.90;;;;;;5058284;28;20439;-73
2022/06/08 03:37:22;;;;;;;19.70;8.50;;;15.40;99.90;;;;;;5054992;28;20218;-74
2022/06/08 03:39:48;;;;;;;14.50;6.70;;;15.40;99.90;;;;;;5062906;28;20233;-73
2022/06/08 03:42:13;;;;;;;17.20;7.10;;;15.40;99.90;;;;;;5056727;28;20443;-73
2022/06/08 03:44:40;;;;;;;18.97;8.40;;;15.40;99.90;;;;;;5050878;28;20247;-75
2022/06/08 03:47:11;;;;;;;14.73;6.43;;;15.50;99.90;;;;;;5043861;28;20533;-75
2022/06/08 03:49:37;;;;;;;16.00;7.40;;;15.50;99.90;;;;;;5059257;28;20435;-73
2022/06/08 03:52:09;;;;;;;17.80;7.70;;;15.50;99.90;;;;;;5062712;28;20439;-70
2022/06/08 03:54:40;;;;;;;16.07;7.27;;;15.60;99.90;;;;;;5052097;28;20433;-69
2022/06/08 03:57:08;;;;;;;15.00;6.67;;;15.60;99.90;;;;;;5049265;28;20473;-70
2022/06/08 03:59:36;;;;;;;16.30;7.57;;;15.60;99.90;;;;;;5061057;28;20448;-69
2022/06/08 04:02:02;;;;;;;19.77;8.17;;;15.70;99.90;;;;;;5044607;28;20436;-69
2022/06/08 04:04:28;;;;;;;20.40;8.83;;;15.70;99.90;;;;;;5057969;28;20416;-69
2022/06/08 04:06:54;;;;;;;12.03;6.10;;;15.80;99.90;;;;;;5049287;28;20437;-69
2022/06/08 04:09:19;;;;;;;13.97;6.30;;;15.80;99.90;;;;;;5054762;28;20212;-69
2022/06/08 04:11:46;;;;;;;17.07;7.37;;;15.80;99.90;;;;;;5060480;28;20273;-69
2022/06/08 04:14:11;;;;;;;17.77;7.57;;;15.90;99.90;;;;;;5051819;28;20198;-70
2022/06/08 04:16:37;;;;;;;19.43;8.57;;;15.90;99.90;;;;;;5048023;28;20847;-70
2022/06/08 04:19:03;;;;;;;15.43;7.37;;;16.00;99.90;;;;;;5047111;28;20285;-69
2022/06/08 04:21:28;;;;;;;14.10;6.83;;;16.00;99.90;;;;;;5050709;28;20216;-69
2022/06/08 04:23:54;;;;;;;15.27;6.60;;;16.00;99.90;;;;;;5039777;28;20657;-68
2022/06/08 04:26:21;;;;;;;22.03;9.27;;;16.00;99.90;;;;;;5045957;28;20589;-69
2022/06/08 04:28:46;;;;;;;14.67;6.73;;;16.00;99.90;;;;;;5040309;28;20424;-72
2022/06/08 04:31:14;;;;;;;19.20;8.30;;;16.00;99.90;;;;;;5047924;28;20517;-71
2022/06/08 04:33:39;;;;;;;17.93;7.73;;;16.00;99.90;;;;;;5061109;28;20274;-70
2022/06/08 04:36:05;;;;;;;22.80;10.17;;;16.00;99.90;;;;;;5037007;28;20990;-71
2022/06/08 04:38:32;;;;;;;18.63;8.43;;;16.00;99.90;;;;;;5048491;28;20594;-71
2022/06/08 04:40:59;;;;;;;22.23;9.87;;;16.00;99.90;;;;;;5050854;28;20794;-71
2022/06/08 04:43:24;;;;;;;20.10;9.17;;;16.10;99.90;;;;;;5042645;28;20925;-71
2022/06/08 04:45:50;;;;;;;23.80;11.93;;;16.10;99.90;;;;;;5055501;28;20420;-70
2022/06/08 04:48:16;;;;;;;22.93;10.63;;;16.10;99.90;;;;;;5047267;28;20798;-70
2022/06/08 04:50:42;;;;;;;31.87;13.60;;;16.10;99.90;;;;;;5047573;28;20300;-71
2022/06/08 04:53:08;;;;;;;24.30;11.10;;;16.10;99.90;;;;;;5045627;28;20896;-70
2022/06/08 04:55:34;;;;;;;18.33;8.47;;;16.20;99.90;;;;;;5052499;28;20705;-70
2022/06/08 04:58:01;;;;;;;16.90;8.47;;;16.20;99.90;;;;;;5046762;28;20476;-72
2022/06/08 05:00:27;;;;;;;18.07;8.23;;;16.20;99.90;;;;;;5056536;28;20451;-70
2022/06/08 05:02:54;;;;;;;24.10;9.00;;;16.20;99.90;;;;;;5058261;28;20928;-70
2022/06/08 05:05:24;;;;;;;23.87;11.10;;;16.30;99.90;;;;;;5055345;28;20479;-70
2022/06/08 05:07:51;;;;;;;16.40;9.00;;;16.20;99.90;;;;;;5048679;28;20428;-71
2022/06/08 05:10:17;;;;;;;21.50;10.47;;;16.30;99.90;;;;;;5044292;28;20457;-70
2022/06/08 05:12:44;;;;;;;28.90;13.80;;;16.30;99.90;;;;;;5061479;28;20427;-71
2022/06/08 05:15:18;;;;;;;23.07;12.17;;;16.30;99.90;;;;;;5063689;28;20436;-71
2022/06/08 05:17:44;;;;;;;34.13;19.27;;;16.40;99.90;;;;;;5059007;28;21017;-70
2022/06/08 05:20:11;;;;;;;24.63;13.83;;;16.50;99.90;;;;;;5046376;28;20461;-72
2022/06/08 05:22:38;;;;;;;33.13;28.90;;;16.50;99.90;;;;;;5056661;28;20183;-70
2022/06/08 05:25:05;;;;;;;23.27;20.87;;;16.50;99.90;;;;;;5049234;28;20433;-68
2022/06/08 05:27:31;;;;;;;29.43;17.17;;;16.40;99.90;;;;;;5056403;28;20803;-72
2022/06/08 05:29:56;;;;;;;18.93;15.03;;;16.50;99.90;;;;;;5042739;28;20453;-69
2022/06/08 05:32:22;;;;;;;29.23;15.80;;;16.50;99.90;;;;;;5054960;28;20186;-71
2022/06/08 05:34:48;;;;;;;121.13;114.33;;;16.40;99.90;;;;;;5063376;28;20214;-70
2022/06/08 05:37:13;;;;;;;87.40;82.00;;;16.50;99.90;;;;;;5051170;28;20211;-70
2022/06/08 05:39:39;;;;;;;162.93;156.27;;;16.50;99.90;;;;;;5067231;28;20202;-71
2022/06/08 05:42:05;;;;;;;80.83;76.77;;;16.50;99.90;;;;;;5071083;28;20186;-72
2022/06/08 05:44:32;;;;;;;233.93;225.03;;;16.40;99.90;;;;;;5065998;28;20178;-71
2022/06/08 05:46:58;;;;;;;339.43;320.87;;;16.40;99.90;;;;;;5055045;28;20441;-71
2022/06/08 05:49:23;;;;;;;340.97;320.40;;;16.40;99.90;;;;;;5050361;28;20602;-71
2022/06/08 05:51:49;;;;;;;384.23;363.87;;;16.40;99.90;;;;;;5063764;28;20201;-71
2022/06/08 05:54:15;;;;;;;389.67;365.70;;;16.30;99.90;;;;;;5051525;28;20195;-71
2022/06/08 05:56:41;;;;;;;361.03;339.93;;;16.40;99.90;;;;;;5058389;28;20301;-71
2022/06/08 05:59:07;;;;;;;210.70;200.93;;;16.30;99.90;;;;;;5058415;28;20253;-72
2022/06/08 06:01:33;;;;;;;127.40;120.47;;;16.30;99.90;;;;;;5050778;28;20187;-72
2022/06/08 06:04:03;;;;;;;371.70;349.63;;;16.50;99.90;;;;;;5051512;28;20186;-72
2022/06/08 06:06:29;;;;;;;375.70;356.23;;;16.50;99.90;;;;;;5052124;28;20463;-72
2022/06/08 06:08:55;;;;;;;28.70;17.50;;;16.60;99.90;;;;;;5061897;28;20424;-73
2022/06/08 06:11:21;;;;;;;18.07;7.70;;;16.60;99.90;;;;;;5048777;28;20436;-75
2022/06/08 06:13:47;;;;;;;21.20;9.80;;;16.80;99.90;;;;;;5051269;28;20767;-75
2022/06/08 06:16:12;;;;;;;13.50;6.27;;;17.00;99.90;;;;;;5043344;28;20186;-77
2022/06/08 06:18:38;;;;;;;17.13;7.37;;;17.30;99.90;;;;;;5054328;28;20186;-77
2022/06/08 06:21:04;;;;;;;20.77;8.30;;;17.30;99.90;;;;;;5047032;28;20190;-76
2022/06/08 06:23:29;;;;;;;18.33;7.67;;;17.60;99.90;;;;;;5065825;28;20239;-76
2022/06/08 06:25:56;;;;;;;26.10;10.40;;;17.70;99.90;;;;;;5085449;28;20183;-75
2022/06/08 06:28:22;;;;;;;14.30;5.53;;;17.90;99.90;;;;;;5062562;28;20566;-72
2022/06/08 06:30:48;;;;;;;26.67;9.87;;;18.00;99.90;;;;;;5057820;28;20769;-74
2022/06/08 06:33:14;;;;;;;13.03;5.53;;;18.00;99.90;;;;;;5057692;28;20488;-73
2022/06/08 06:35:41;;;;;;;19.07;7.10;;;18.10;99.90;;;;;;5058284;28;20428;-73
2022/06/08 06:38:08;;;;;;;20.37;8.17;;;18.10;99.90;;;;;;5057889;28;20468;-73
2022/06/08 06:40:35;;;;;;;16.20;6.97;;;18.10;99.90;;;;;;5065838;28;20440;-74
2022/06/08 06:43:02;;;;;;;18.60;7.17;;;18.10;99.90;;;;;;5050556;28;21003;-74
2022/06/08 06:45:28;;;;;;;21.20;7.43;;;18.00;99.90;;;;;;5061184;28;20485;-73
2022/06/08 06:47:54;;;;;;;13.27;6.10;;;18.00;99.90;;;;;;5049884;28;20447;-73
2022/06/08 06:50:20;;;;;;;11.13;5.23;;;18.10;99.90;;;;;;5060183;28;20453;-72
2022/06/08 06:52:46;;;;;;;12.50;6.33;;;18.00;99.90;;;;;;5047226;28;20194;-73
2022/06/08 06:55:20;;;;;;;13.80;6.27;;;17.90;99.90;;;;;;5055079;28;20433;-73
2022/06/08 06:57:46;;;;;;;11.57;5.87;;;17.90;99.90;;;;;;5067747;28;20260;-72
2022/06/08 07:00:12;;;;;;;13.00;5.93;;;17.90;99.90;;;;;;5059659;28;20445;-75
2022/06/08 07:02:37;;;;;;;14.63;6.10;;;17.90;99.90;;;;;;5059779;28;20178;-74
2022/06/08 07:05:03;;;;;;;19.37;7.23;;;17.80;99.90;;;;;;5043851;28;20419;-73
2022/06/08 07:07:29;;;;;;;14.00;6.07;;;17.80;99.90;;;;;;5060631;28;20193;-74
2022/06/08 07:09:54;;;;;;;13.67;6.00;;;17.90;99.90;;;;;;5063714;28;20198;-74
2022/06/08 07:12:20;;;;;;;12.37;6.00;;;18.00;99.90;;;;;;5059742;28;20182;-73
2022/06/08 07:14:45;;;;;;;16.53;7.20;;;18.10;99.90;;;;;;5062617;28;20190;-74
2022/06/08 07:17:11;;;;;;;21.40;8.53;;;18.20;99.90;;;;;;5061348;28;20260;-74
2022/06/08 07:19:37;;;;;;;21.40;9.13;;;18.30;99.90;;;;;;5061590;28;20207;-75
2022/06/08 07:22:03;;;;;;;17.73;7.67;;;18.30;99.90;;;;;;5062231;28;20182;-74
2022/06/08 07:24:33;;;;;;;19.40;8.00;;;18.40;99.90;;;;;;5044723;28;20443;-74
2022/06/08 07:27:00;;;;;;;13.67;5.40;;;18.50;99.90;;;;;;5059647;28;20539;-73
2022/06/08 07:29:26;;;;;;;19.73;6.40;;;18.50;99.90;;;;;;5061777;28;20445;-76
2022/06/08 07:31:52;;;;;;;16.57;6.00;;;18.40;99.90;;;;;;5065894;28;20539;-74
2022/06/08 07:34:18;;;;;;;16.70;5.73;;;18.40;99.90;;;;;;5059003;28;20190;-74
2022/06/08 07:36:44;;;;;;;19.60;7.80;;;18.50;99.90;;;;;;5061877;28;21069;-75
2022/06/08 07:39:11;;;;;;;9.23;4.43;;;18.60;99.90;;;;;;5062575;28;20497;-75
2022/06/08 07:41:36;;;;;;;13.73;5.57;;;18.70;99.90;;;;;;5061431;28;20909;-74
2022/06/08 07:44:02;;;;;;;14.07;4.83;;;18.70;99.90;;;;;;5056847;28;20463;-74
2022/06/08 07:46:29;;;;;;;18.80;6.77;;;18.70;99.90;;;;;;5057390;28;20644;-75
2022/06/08 07:51:39;;;;;;;15.50;5.03;;;18.70;99.90;;;;;;5046731;28;20467;-74
2022/06/08 07:54:05;;;;;;;9.23;4.33;;;18.80;99.90;;;;;;5062161;28;20424;-75
2022/06/08 07:56:30;;;;;;;13.10;5.47;;;18.90;99.90;;;;;;5059882;28;20182;-77
2022/06/08 07:58:56;;;;;;;10.83;3.97;;;19.00;99.90;;;;;;5060114;28;20208;-75
2022/06/08 08:01:22;;;;;;;13.10;5.43;;;19.00;99.90;;;;;;5061770;28;20181;-74
2022/06/08 08:03:47;;;;;;;12.47;4.93;;;19.00;99.90;;;;;;5048812;28;20558;-74
2022/06/08 08:06:13;;;;;;;9.57;3.97;;;19.10;99.90;;;;;;5061005;28;20642;-74
2022/06/08 08:08:38;;;;;;;15.47;6.00;;;19.30;99.90;;;;;;5060639;28;20600;-73
2022/06/08 08:11:05;;;;;;;12.40;4.93;;;19.40;99.90;;;;;;5062222;28;20177;-74
2022/06/08 08:13:31;;;;;;;29.33;9.60;;;19.30;99.90;;;;;;5059878;28;20714;-74
2022/06/08 08:15:57;;;;;;;14.43;6.37;;;19.30;99.90;;;;;;5061868;28;20424;-72
2022/06/08 08:18:22;;;;;;;18.77;6.80;;;19.30;99.90;;;;;;5061500;28;20841;-73
2022/06/08 08:20:48;;;;;;;25.17;8.73;;;19.40;99.90;;;;;;5058461;28;20285;-74
2022/06/08 08:23:14;;;;;;;10.60;4.70;;;19.60;99.90;;;;;;5051099;28;20183;-74
2022/06/08 08:25:40;;;;;;;18.17;7.50;;;19.70;99.90;;;;;;5057615;28;20179;-74
2022/06/08 08:28:07;;;;;;;15.93;5.60;;;19.70;99.90;;;;;;5062373;28;20428;-74
2022/06/08 08:30:34;;;;;;;23.20;7.83;;;19.70;99.90;;;;;;5061030;28;20579;-73
2022/06/08 08:33:00;;;;;;;25.30;8.33;;;19.80;99.90;;;;;;5061589;28;20420;-74
2022/06/08 08:35:27;;;;;;;15.23;5.57;;;19.80;99.90;;;;;;5061167;28;20428;-75
2022/06/08 08:37:54;;;;;;;20.03;5.10;;;19.80;99.90;;;;;;5057065;28;20206;-75
2022/06/08 08:40:42;;;;;;;16.10;5.63;;;20.00;99.90;;;;;;5065799;28;20470;-74
2022/06/08 08:43:11;;;;;;;23.77;8.00;;;20.10;99.90;;;;;;5055843;28;20420;-74
2022/06/08 08:45:58;;;;;;;31.10;11.53;;;20.20;99.90;;;;;;5066955;28;20427;-74
2022/06/08 08:48:33;;;;;;;12.47;5.77;;;20.50;99.90;;;;;;5058785;28;20783;-74
2022/06/08 08:51:11;;;;;;;17.67;7.20;;;20.50;99.90;;;;;;5062861;28;20447;-74
2022/06/08 08:53:52;;;;;;;14.33;5.80;;;20.70;99.90;;;;;;5038813;28;20417;-75
2022/06/08 08:56:27;;;;;;;16.23;6.50;;;20.80;99.90;;;;;;5060598;28;20423;-74
2022/06/08 08:58:53;;;;;;;16.30;5.30;;;21.00;99.90;;;;;;5059338;28;20415;-73
2022/06/08 09:01:34;;;;;;;12.87;4.20;;;21.00;99.90;;;;;;5062929;28;20424;-74
2022/06/08 09:04:14;;;;;;;16.70;5.00;;;21.10;99.90;;;;;;5055334;28;20158;-74
2022/06/08 09:06:40;;;;;;;20.20;7.37;;;21.30;99.90;;;;;;5059133;28;20423;-73
2022/06/08 09:09:12;;;;;;;11.70;4.27;;;21.50;99.90;;;;;;5063209;28;20432;-75
2022/06/08 09:11:42;;;;;;;16.50;6.03;;;21.50;99.90;;;;;;5058177;28;20390;-73
2022/06/08 09:14:24;;;;;;;21.13;7.90;;;21.60;99.90;;;;;;5063803;28;20774;-74
2022/06/08 09:16:52;;;;;;;14.97;5.10;;;21.60;99.90;;;;;;5054227;28;20452;-75
2022/06/08 09:19:21;;;;;;;10.70;4.67;;;21.40;99.90;;;;;;5047452;28;20448;-75
2022/06/08 09:21:51;;;;;;;18.80;6.93;;;21.40;99.90;;;;;;5066941;28;20421;-74
2022/06/08 09:24:26;;;;;;;14.30;5.60;;;21.50;99.90;;;;;;5059006;28;20409;-76
2022/06/08 09:26:57;;;;;;;12.40;4.33;;;21.50;99.90;;;;;;5073019;28;20444;-74
2022/06/08 09:29:26;;;;;;;13.00;5.40;;;21.40;99.90;;;;;;5055221;28;20436;-75
2022/06/08 09:31:52;;;;;;;12.20;5.17;;;21.40;99.90;;;;;;5064988;28;20428;-75
2022/06/08 09:34:28;;;;;;;19.83;6.23;;;21.40;99.90;;;;;;5058022;28;20425;-74
2022/06/08 09:37:20;;;;;;;14.13;5.43;;;21.50;99.90;;;;;;5046924;28;20554;-74
2022/06/08 09:39:46;;;;;;;23.17;5.93;;;21.70;99.90;;;;;;5046951;28;20493;-75
2022/06/08 09:42:31;;;;;;;13.00;5.03;;;21.70;99.90;;;;;;5054236;28;20417;-74
2022/06/08 09:45:22;;;;;;;13.57;5.17;;;21.60;99.90;;;;;;5057058;28;20265;-74
2022/06/08 09:54:13;;;;;;;11.30;4.60;;;21.40;99.90;;;;;;5053172;28;20434;-74
2022/06/08 09:57:08;;;;;;;16.03;5.77;;;21.30;99.90;;;;;;5054713;28;20947;-73
2022/06/08 09:59:39;;;;;;;14.80;5.77;;;21.30;99.90;;;;;;5057535;28;20970;-74
2022/06/08 10:02:28;;;;;;;15.50;5.50;;;21.50;99.90;;;;;;5054249;28;20836;-75
2022/06/08 10:05:12;;;;;;;16.50;5.63;;;21.70;99.90;;;;;;5044074;28;20860;-74
2022/06/08 10:07:50;;;;;;;14.07;5.50;;;22.00;99.90;;;;;;5063566;28;20540;-74
2022/06/08 10:10:41;;;;;;;13.20;4.73;;;22.40;99.90;;;;;;5063748;28;20443;-75
2022/06/08 10:13:20;;;;;;;13.53;4.40;;;22.40;99.90;;;;;;5044039;28;20944;-73
2022/06/08 10:16:01;;;;;;;20.60;6.93;;;22.30;99.90;;;;;;5055806;28;20424;-75
2022/06/08 10:18:41;;;;;;;12.00;4.53;;;22.30;99.90;;;;;;5048118;28;20484;-76
2022/06/08 10:21:24;;;;;;;10.23;3.93;;;22.10;99.90;;;;;;5054396;28;20431;-76
2022/06/08 10:23:49;;;;;;;9.10;3.30;;;22.20;99.90;;;;;;5047062;28;20425;-76
2022/06/08 10:26:34;;;;;;;13.43;4.90;;;22.10;99.90;;;;;;5057073;28;20432;-76
2022/06/08 10:29:17;;;;;;;15.90;5.33;;;21.80;99.90;;;;;;5057740;28;20229;-77
2022/06/08 10:32:18;;;;;;;17.67;5.80;;;21.70;99.90;;;;;;5069950;28;20431;-77
2022/06/08 10:34:44;;;;;;;11.60;4.23;;;21.60;99.90;;;;;;5059912;28;20420;-75
2022/06/08 10:37:16;;;;;;;31.97;9.90;;;21.70;99.90;;;;;;5067922;22;20949;-76
2022/06/08 10:39:43;;;;;;;14.30;4.80;;;21.70;99.90;;;;;;5054508;28;20431;-75
2022/06/08 10:44:58;;;;;;;18.47;5.70;;;22.10;99.90;;;;;;5049891;28;20952;-77
2022/06/08 10:47:37;;;;;;;10.17;3.97;;;22.10;99.90;;;;;;5054671;28;21030;-77
2022/06/08 10:50:03;;;;;;;13.20;4.50;;;22.30;99.90;;;;;;5042465;28;20955;-76
2022/06/08 10:52:47;;;;;;;11.60;3.90;;;22.30;99.90;;;;;;5037116;28;20525;-75
2022/06/08 10:55:18;;;;;;;7.77;3.53;;;22.20;99.90;;;;;;5056833;28;20773;-77
2022/06/08 10:57:50;;;;;;;17.70;6.30;;;22.30;99.90;;;;;;5058585;28;20468;-76
2022/06/08 11:00:22;;;;;;;13.57;4.63;;;22.40;99.90;;;;;;5048420;28;20451;-75
2022/06/08 11:03:02;;;;;;;12.73;4.03;;;22.60;99.90;;;;;;5035304;28;20426;-75
2022/06/08 11:05:42;;;;;;;9.27;4.10;;;22.70;99.90;;;;;;5051829;28;20465;-76
2022/06/08 11:08:07;;;;;;;19.20;6.70;;;22.70;99.90;;;;;;5051349;28;20468;-76
2022/06/08 11:10:45;;;;;;;17.67;6.63;;;22.80;99.90;;;;;;5066700;28;20515;-75
2022/06/08 11:13:25;;;;;;;11.80;4.20;;;23.00;99.90;;;;;;5059595;28;20178;-75
2022/06/08 11:16:14;;;;;;;11.73;4.70;;;22.90;99.90;;;;;;5041255;28;21002;-77
2022/06/08 11:18:53;;;;;;;19.77;7.10;;;22.70;99.90;;;;;;5054194;28;20468;-76
2022/06/08 11:21:43;;;;;;;21.73;7.57;;;22.70;99.90;;;;;;5053759;28;20432;-77
2022/06/08 11:24:23;;;;;;;13.67;5.20;;;22.70;99.90;;;;;;5053348;28;20986;-76
2022/06/08 11:27:05;;;;;;;17.43;5.40;;;22.60;99.90;;;;;;5034080;28;20428;-76
2022/06/08 11:29:31;;;;;;;17.10;5.27;;;22.60;99.90;;;;;;5060165;28;20428;-76
2022/06/08 11:31:57;;;;;;;11.63;4.37;;;22.70;99.90;;;;;;5057333;28;20819;-75
2022/06/08 11:34:37;;;;;;;7.90;3.27;;;22.60;99.90;;;;;;5059298;28;20177;-76
2022/06/08 11:37:05;;;;;;;11.50;4.07;;;22.40;99.90;;;;;;5039974;28;20861;-77
2022/06/08 11:39:44;;;;;;;13.03;4.50;;;22.30;99.90;;;;;;5060691;28;20420;-76
2022/06/08 11:42:33;;;;;;;11.10;3.93;;;22.40;99.90;;;;;;5055685;28;20432;-77
2022/06/08 11:45:22;;;;;;;9.73;3.23;;;22.40;99.90;;;;;;5032057;28;20424;-77
2022/06/08 11:47:58;;;;;;;14.43;4.67;;;22.30;99.90;;;;;;5043591;28;20472;-77
2022/06/08 11:50:29;;;;;;;11.00;3.87;;;22.20;99.90;;;;;;5048067;28;20519;-75
2022/06/08 11:53:06;;;;;;;12.00;4.40;;;22.10;99.90;;;;;;5026750;28;20501;-77
2022/06/08 11:55:45;;;;;;;18.23;6.10;;;22.00;99.90;;;;;;5047196;28;20422;-74
2022/06/08 11:58:22;;;;;;;16.27;5.57;;;21.90;99.90;;;;;;5059081;28;20885;-76
2022/06/08 12:00:48;;;;;;;26.43;7.87;;;21.70;99.90;;;;;;5029598;28;20432;-76
2022/06/08 12:03:41;;;;;;;12.23;4.50;;;21.70;99.90;;;;;;5063378;28;20432;-76
2022/06/08 12:06:24;;;;;;;14.67;4.73;;;21.60;99.90;;;;;;5057976;28;20428;-75
2022/06/08 12:08:58;;;;;;;13.50;4.50;;;21.50;99.90;;;;;;5052332;28;20457;-74
2022/06/08 12:11:30;;;;;;;15.17;4.83;;;21.50;99.90;;;;;;5054548;28;20428;-76
2022/06/08 12:14:16;;;;;;;13.83;4.73;;;21.50;99.90;;;;;;5040185;28;20773;-75
2022/06/08 12:16:58;;;;;;;16.30;5.50;;;21.40;99.90;;;;;;5061825;28;20412;-78
2022/06/08 12:19:27;;;;;;;10.33;4.10;;;21.40;99.90;;;;;;5061194;28;20511;-74
2022/06/08 12:22:18;;;;;;;14.90;5.30;;;21.30;99.90;;;;;;5056517;28;20548;-75
2022/06/08 12:25:02;;;;;;;8.70;3.47;;;21.30;99.90;;;;;;5057083;28;20429;-77
2022/06/08 12:27:28;;;;;;;28.03;9.00;;;21.20;99.90;;;;;;5058784;28;20442;-76
2022/06/08 12:29:59;;;;;;;24.57;7.80;;;21.20;99.90;;;;;;5041427;28;20461;-77
2022/06/08 12:32:36;;;;;;;13.00;5.00;;;21.20;99.90;;;;;;5041139;28;20178;-76
2022/06/08 12:35:24;;;;;;;22.83;7.40;;;21.20;99.90;;;;;;5057305;28;20447;-76
2022/06/08 12:38:12;;;;;;;15.67;6.10;;;21.20;99.90;;;;;;5052533;28;20470;-76
2022/06/08 12:40:38;;;;;;;16.80;5.70;;;21.20;99.90;;;;;;5050835;28;20433;-76
2022/06/08 12:43:07;;;;;;;15.77;5.53;;;21.30;99.90;;;;;;5057510;28;20474;-76
2022/06/08 12:45:39;;;;;;;31.77;9.90;;;21.30;99.90;;;;;;5051512;28;20421;-76
2022/06/08 12:48:49;;;;;;;25.13;7.77;;;21.30;99.90;;;;;;5037300;28;20539;-76
2022/06/08 12:51:34;;;;;;;13.57;4.63;;;21.30;99.90;;;;;;5032619;28;20420;-76
2022/06/08 12:54:06;;;;;;;13.30;4.93;;;21.40;99.90;;;;;;5047128;28;20425;-77
2022/06/08 12:56:31;;;;;;;16.80;5.00;;;21.40;99.90;;;;;;5065358;28;20423;-76
2022/06/08 12:58:57;;;;;;;15.43;5.77;;;21.40;99.90;;;;;;5052472;28;20443;-77
2022/06/08 13:01:27;;;;;;;16.07;5.90;;;21.50;99.90;;;;;;5057870;28;20232;-76
2022/06/08 13:03:54;;;;;;;18.67;7.37;;;21.60;99.90;;;;;;5047165;28;20177;-76
2022/06/08 13:06:20;;;;;;;24.30;17.30;;;21.80;99.90;;;;;;5057553;28;20942;-76
2022/06/08 13:08:48;;;;;;;17.07;6.63;;;22.10;99.90;;;;;;5061186;28;20478;-76
2022/06/08 13:11:18;;;;;;;15.50;5.23;;;22.40;99.90;;;;;;5050147;28;20554;-76